sensor_id;sensor_type;location;lat;lon;timestamp;P1;durP1;ratioP1;P2;durP2;ratioP2
29402;SDS011;16382;59.942;30.472;2022-09-03T00:01:40;7.43;;;4.95;;
29402;SDS011;16382;59.942;30.472;2022-09-03T00:04:16;6.88;;;4.93;;
29402;SDS011;16382;59.942;30.472;2022-09-03T00:06:51;8.48;;;5.22;;
29402;SDS011;16382;59.942;30.472;2022-09-03T00:09:29;7.72;;;4.95;;
29402;SDS011;16382;59.942;30.472;2022-09-03T00:12:09;7.60;;;5.77;;
29402;SDS011;16382;59.942;30.472;2022-09-03T00:14:45;7.23;;;5.20;;
29402;SDS011;16382;59.942;30.472;2022-09-03T00:17:18;8.20;;;5.65;;
29402;SDS011;16382;59.942;30.472;2022-09-03T00:19:51;5.63;;;5.03;;
29402;SDS011;16382;59.942;30.472;2022-09-03T00:22:23;6.53;;;5.60;;
29402;SDS011;16382;59.942;30.472;2022-09-03T00:24:55;11.63;;;6.60;;
29402;SDS011;16382;59.942;30.472;2022-09-03T00:27:27;7.82;;;5.43;;
29402;SDS011;16382;59.942;30.472;2022-09-03T00:29:56;6.82;;;5.47;;
29402;SDS011;16382;59.942;30.472;2022-09-03T00:32:33;5.55;;;5.05;;
29402;SDS011;16382;59.942;30.472;2022-09-03T00:35:08;6.10;;;4.95;;
29402;SDS011;16382;59.942;30.472;2022-09-03T00:37:42;7.05;;;4.63;;
29402;SDS011;16382;59.942;30.472;2022-09-03T00:40:11;7.28;;;4.22;;
29402;SDS011;16382;59.942;30.472;2022-09-03T00:43:01;4.25;;;3.75;;
29402;SDS011;16382;59.942;30.472;2022-09-03T00:45:38;9.65;;;4.03;;
29402;SDS011;16382;59.942;30.472;2022-09-03T00:48:18;5.53;;;3.63;;
29402;SDS011;16382;59.942;30.472;2022-09-03T00:50:55;5.93;;;3.60;;
29402;SDS011;16382;59.942;30.472;2022-09-03T00:53:37;5.57;;;3.88;;
29402;SDS011;16382;59.942;30.472;2022-09-03T00:56:12;3.88;;;2.78;;
29402;SDS011;16382;59.942;30.472;2022-09-03T00:58:57;4.93;;;3.83;;
29402;SDS011;16382;59.942;30.472;2022-09-03T01:01:39;4.20;;;2.58;;
29402;SDS011;16382;59.942;30.472;2022-09-03T01:07:10;3.30;;;2.58;;
29402;SDS011;16382;59.942;30.472;2022-09-03T01:09:47;3.83;;;2.83;;
29402;SDS011;16382;59.942;30.472;2022-09-03T01:12:26;7.93;;;3.00;;
29402;SDS011;16382;59.942;30.472;2022-09-03T01:15:05;4.07;;;2.63;;
29402;SDS011;16382;59.942;30.472;2022-09-03T01:17:44;3.88;;;2.20;;
29402;SDS011;16382;59.942;30.472;2022-09-03T01:20:28;3.00;;;2.80;;
29402;SDS011;16382;59.942;30.472;2022-09-03T01:23:11;3.75;;;2.78;;
29402;SDS011;16382;59.942;30.472;2022-09-03T01:26:05;3.55;;;2.90;;
29402;SDS011;16382;59.942;30.472;2022-09-03T01:28:56;6.13;;;3.10;;
29402;SDS011;16382;59.942;30.472;2022-09-03T01:34:13;4.97;;;3.10;;
29402;SDS011;16382;59.942;30.472;2022-09-03T01:36:52;3.50;;;2.92;;
29402;SDS011;16382;59.942;30.472;2022-09-03T01:39:29;3.38;;;2.70;;
29402;SDS011;16382;59.942;30.472;2022-09-03T01:42:13;3.22;;;2.80;;
29402;SDS011;16382;59.942;30.472;2022-09-03T01:45:09;2.72;;;2.50;;
29402;SDS011;16382;59.942;30.472;2022-09-03T01:48:09;5.68;;;3.00;;
29402;SDS011;16382;59.942;30.472;2022-09-03T01:50:52;3.53;;;2.80;;
29402;SDS011;16382;59.942;30.472;2022-09-03T01:53:29;2.75;;;2.55;;
29402;SDS011;16382;59.942;30.472;2022-09-03T01:56:16;4.10;;;2.75;;
29402;SDS011;16382;59.942;30.472;2022-09-03T01:59:00;3.25;;;2.45;;
29402;SDS011;16382;59.942;30.472;2022-09-03T02:01:36;2.88;;;2.38;;
29402;SDS011;16382;59.942;30.472;2022-09-03T02:04:13;3.15;;;2.58;;
29402;SDS011;16382;59.942;30.472;2022-09-03T02:06:47;2.65;;;2.45;;
29402;SDS011;16382;59.942;30.472;2022-09-03T02:09:15;4.47;;;3.55;;
29402;SDS011;16382;59.942;30.472;2022-09-03T02:11:43;3.25;;;2.95;;
29402;SDS011;16382;59.942;30.472;2022-09-03T02:16:45;3.15;;;2.60;;
29402;SDS011;16382;59.942;30.472;2022-09-03T02:19:13;3.38;;;2.63;;
29402;SDS011;16382;59.942;30.472;2022-09-03T02:21:44;4.10;;;2.90;;
29402;SDS011;16382;59.942;30.472;2022-09-03T02:24:17;3.85;;;2.88;;
29402;SDS011;16382;59.942;30.472;2022-09-03T02:26:44;3.83;;;2.60;;
29402;SDS011;16382;59.942;30.472;2022-09-03T02:29:12;4.72;;;2.80;;
29402;SDS011;16382;59.942;30.472;2022-09-03T02:31:41;3.10;;;2.80;;
29402;SDS011;16382;59.942;30.472;2022-09-03T02:34:10;4.57;;;2.58;;
29402;SDS011;16382;59.942;30.472;2022-09-03T02:36:40;6.05;;;2.95;;
29402;SDS011;16382;59.942;30.472;2022-09-03T02:39:10;3.78;;;2.70;;
29402;SDS011;16382;59.942;30.472;2022-09-03T02:41:38;4.47;;;2.58;;
29402;SDS011;16382;59.942;30.472;2022-09-03T02:44:07;30.88;;;5.15;;
29402;SDS011;16382;59.942;30.472;2022-09-03T02:46:40;53.38;;;8.00;;
29402;SDS011;16382;59.942;30.472;2022-09-03T02:49:12;58.47;;;7.50;;
29402;SDS011;16382;59.942;30.472;2022-09-03T02:51:41;32.08;;;6.63;;
29402;SDS011;16382;59.942;30.472;2022-09-03T02:54:09;35.10;;;6.80;;
29402;SDS011;16382;59.942;30.472;2022-09-03T02:56:38;32.10;;;6.13;;
29402;SDS011;16382;59.942;30.472;2022-09-03T02:59:06;31.67;;;5.75;;
29402;SDS011;16382;59.942;30.472;2022-09-03T03:01:35;10.20;;;4.30;;
29402;SDS011;16382;59.942;30.472;2022-09-03T03:04:02;18.58;;;5.85;;
29402;SDS011;16382;59.942;30.472;2022-09-03T03:06:31;13.07;;;4.30;;
29402;SDS011;16382;59.942;30.472;2022-09-03T03:09:01;11.18;;;4.35;;
29402;SDS011;16382;59.942;30.472;2022-09-03T03:11:30;5.22;;;3.08;;
29402;SDS011;16382;59.942;30.472;2022-09-03T03:13:57;6.97;;;3.10;;
29402;SDS011;16382;59.942;30.472;2022-09-03T03:16:24;8.40;;;3.10;;
29402;SDS011;16382;59.942;30.472;2022-09-03T03:18:52;8.38;;;4.28;;
29402;SDS011;16382;59.942;30.472;2022-09-03T03:21:21;7.03;;;3.35;;
29402;SDS011;16382;59.942;30.472;2022-09-03T03:23:50;9.90;;;3.83;;
29402;SDS011;16382;59.942;30.472;2022-09-03T03:26:18;11.30;;;3.80;;
29402;SDS011;16382;59.942;30.472;2022-09-03T03:28:47;10.55;;;3.45;;
29402;SDS011;16382;59.942;30.472;2022-09-03T03:31:19;12.57;;;3.65;;
29402;SDS011;16382;59.942;30.472;2022-09-03T03:33:49;6.15;;;3.15;;
29402;SDS011;16382;59.942;30.472;2022-09-03T03:36:17;9.00;;;3.38;;
29402;SDS011;16382;59.942;30.472;2022-09-03T03:38:45;8.57;;;3.60;;
29402;SDS011;16382;59.942;30.472;2022-09-03T03:41:15;6.93;;;3.72;;
29402;SDS011;16382;59.942;30.472;2022-09-03T03:43:46;26.27;;;4.88;;
29402;SDS011;16382;59.942;30.472;2022-09-03T03:46:13;33.42;;;5.45;;
29402;SDS011;16382;59.942;30.472;2022-09-03T03:48:40;27.25;;;5.78;;
29402;SDS011;16382;59.942;30.472;2022-09-03T03:51:08;21.83;;;4.95;;
29402;SDS011;16382;59.942;30.472;2022-09-03T03:53:36;11.63;;;3.53;;
29402;SDS011;16382;59.942;30.472;2022-09-03T03:56:05;12.50;;;4.32;;
29402;SDS011;16382;59.942;30.472;2022-09-03T03:58:37;16.45;;;4.40;;
29402;SDS011;16382;59.942;30.472;2022-09-03T04:01:08;13.35;;;3.53;;
29402;SDS011;16382;59.942;30.472;2022-09-03T04:03:39;18.00;;;4.47;;
29402;SDS011;16382;59.942;30.472;2022-09-03T04:06:07;15.60;;;5.22;;
29402;SDS011;16382;59.942;30.472;2022-09-03T04:08:36;22.30;;;5.03;;
29402;SDS011;16382;59.942;30.472;2022-09-03T04:11:06;22.75;;;6.03;;
29402;SDS011;16382;59.942;30.472;2022-09-03T04:13:37;16.90;;;5.15;;
29402;SDS011;16382;59.942;30.472;2022-09-03T04:16:06;15.32;;;5.32;;
29402;SDS011;16382;59.942;30.472;2022-09-03T04:18:35;12.82;;;4.75;;
29402;SDS011;16382;59.942;30.472;2022-09-03T04:21:04;22.58;;;6.50;;
29402;SDS011;16382;59.942;30.472;2022-09-03T04:23:34;17.55;;;4.72;;
29402;SDS011;16382;59.942;30.472;2022-09-03T04:26:05;17.60;;;5.25;;
29402;SDS011;16382;59.942;30.472;2022-09-03T04:28:34;18.90;;;6.18;;
29402;SDS011;16382;59.942;30.472;2022-09-03T04:31:04;16.27;;;5.75;;
29402;SDS011;16382;59.942;30.472;2022-09-03T04:33:34;13.30;;;5.07;;
29402;SDS011;16382;59.942;30.472;2022-09-03T04:36:06;21.83;;;5.40;;
29402;SDS011;16382;59.942;30.472;2022-09-03T04:38:36;11.85;;;5.57;;
29402;SDS011;16382;59.942;30.472;2022-09-03T04:41:06;25.33;;;6.78;;
29402;SDS011;16382;59.942;30.472;2022-09-03T04:43:37;14.55;;;5.45;;
29402;SDS011;16382;59.942;30.472;2022-09-03T04:46:06;11.57;;;5.43;;
29402;SDS011;16382;59.942;30.472;2022-09-03T04:48:34;14.73;;;6.13;;
29402;SDS011;16382;59.942;30.472;2022-09-03T04:51:03;12.23;;;5.80;;
29402;SDS011;16382;59.942;30.472;2022-09-03T04:53:33;15.45;;;6.93;;
29402;SDS011;16382;59.942;30.472;2022-09-03T04:56:02;16.38;;;6.00;;
29402;SDS011;16382;59.942;30.472;2022-09-03T04:58:39;12.48;;;5.60;;
29402;SDS011;16382;59.942;30.472;2022-09-03T05:01:09;13.55;;;5.50;;
29402;SDS011;16382;59.942;30.472;2022-09-03T05:03:38;13.80;;;4.97;;
29402;SDS011;16382;59.942;30.472;2022-09-03T05:06:06;11.73;;;4.03;;
29402;SDS011;16382;59.942;30.472;2022-09-03T05:08:33;5.15;;;3.35;;
29402;SDS011;16382;59.942;30.472;2022-09-03T05:11:02;5.68;;;3.65;;
29402;SDS011;16382;59.942;30.472;2022-09-03T05:13:30;5.35;;;3.05;;
29402;SDS011;16382;59.942;30.472;2022-09-03T05:16:03;4.07;;;3.03;;
29402;SDS011;16382;59.942;30.472;2022-09-03T05:18:33;3.70;;;3.28;;
29402;SDS011;16382;59.942;30.472;2022-09-03T05:21:02;4.13;;;2.80;;
29402;SDS011;16382;59.942;30.472;2022-09-03T05:23:34;4.60;;;2.47;;
29402;SDS011;16382;59.942;30.472;2022-09-03T05:26:04;3.40;;;2.60;;
29402;SDS011;16382;59.942;30.472;2022-09-03T05:28:37;4.57;;;2.55;;
29402;SDS011;16382;59.942;30.472;2022-09-03T05:31:10;2.75;;;2.22;;
29402;SDS011;16382;59.942;30.472;2022-09-03T05:33:41;4.95;;;2.50;;
29402;SDS011;16382;59.942;30.472;2022-09-03T05:36:11;2.60;;;2.22;;
29402;SDS011;16382;59.942;30.472;2022-09-03T05:38:42;2.17;;;1.98;;
29402;SDS011;16382;59.942;30.472;2022-09-03T05:41:12;3.60;;;2.90;;
29402;SDS011;16382;59.942;30.472;2022-09-03T05:43:41;2.22;;;2.03;;
29402;SDS011;16382;59.942;30.472;2022-09-03T05:46:11;3.60;;;2.00;;
29402;SDS011;16382;59.942;30.472;2022-09-03T05:48:42;4.68;;;2.90;;
29402;SDS011;16382;59.942;30.472;2022-09-03T05:51:11;2.47;;;2.28;;
29402;SDS011;16382;59.942;30.472;2022-09-03T05:53:42;2.25;;;2.05;;
29402;SDS011;16382;59.942;30.472;2022-09-03T05:56:13;2.85;;;2.47;;
29402;SDS011;16382;59.942;30.472;2022-09-03T05:58:44;2.53;;;2.20;;
29402;SDS011;16382;59.942;30.472;2022-09-03T06:01:18;3.33;;;2.85;;
29402;SDS011;16382;59.942;30.472;2022-09-03T06:03:52;2.25;;;2.05;;
29402;SDS011;16382;59.942;30.472;2022-09-03T06:06:23;2.70;;;2.50;;
29402;SDS011;16382;59.942;30.472;2022-09-03T06:08:52;2.35;;;2.15;;
29402;SDS011;16382;59.942;30.472;2022-09-03T06:11:23;2.97;;;1.90;;
29402;SDS011;16382;59.942;30.472;2022-09-03T06:13:56;2.20;;;2.00;;
29402;SDS011;16382;59.942;30.472;2022-09-03T06:16:27;2.30;;;1.90;;
29402;SDS011;16382;59.942;30.472;2022-09-03T06:18:56;2.47;;;1.70;;
29402;SDS011;16382;59.942;30.472;2022-09-03T06:21:25;2.45;;;1.90;;
29402;SDS011;16382;59.942;30.472;2022-09-03T06:23:54;2.05;;;1.80;;
29402;SDS011;16382;59.942;30.472;2022-09-03T06:26:27;3.45;;;1.80;;
29402;SDS011;16382;59.942;30.472;2022-09-03T06:28:55;4.35;;;1.60;;
29402;SDS011;16382;59.942;30.472;2022-09-03T06:31:24;2.55;;;1.80;;
29402;SDS011;16382;59.942;30.472;2022-09-03T06:33:53;5.30;;;2.03;;
29402;SDS011;16382;59.942;30.472;2022-09-03T06:36:23;3.58;;;1.73;;
29402;SDS011;16382;59.942;30.472;2022-09-03T06:38:54;3.10;;;1.70;;
29402;SDS011;16382;59.942;30.472;2022-09-03T06:41:23;1.88;;;1.77;;
29402;SDS011;16382;59.942;30.472;2022-09-03T06:43:53;2.95;;;1.67;;
29402;SDS011;16382;59.942;30.472;2022-09-03T06:46:30;3.58;;;1.85;;
29402;SDS011;16382;59.942;30.472;2022-09-03T06:49:04;4.20;;;1.90;;
29402;SDS011;16382;59.942;30.472;2022-09-03T06:51:33;2.38;;;2.17;;
29402;SDS011;16382;59.942;30.472;2022-09-03T06:54:02;1.90;;;1.80;;
29402;SDS011;16382;59.942;30.472;2022-09-03T06:56:32;2.00;;;1.80;;
29402;SDS011;16382;59.942;30.472;2022-09-03T06:59:03;2.15;;;1.95;;
29402;SDS011;16382;59.942;30.472;2022-09-03T07:01:34;2.00;;;1.80;;
29402;SDS011;16382;59.942;30.472;2022-09-03T07:04:05;4.47;;;2.58;;
29402;SDS011;16382;59.942;30.472;2022-09-03T07:06:35;3.83;;;1.73;;
29402;SDS011;16382;59.942;30.472;2022-09-03T07:09:04;5.22;;;2.00;;
29402;SDS011;16382;59.942;30.472;2022-09-03T07:11:32;1.88;;;1.77;;
29402;SDS011;16382;59.942;30.472;2022-09-03T07:14:02;2.13;;;1.90;;
29402;SDS011;16382;59.942;30.472;2022-09-03T07:16:32;2.47;;;1.73;;
29402;SDS011;16382;59.942;30.472;2022-09-03T07:19:02;2.47;;;1.60;;
29402;SDS011;16382;59.942;30.472;2022-09-03T07:21:32;3.90;;;1.85;;
29402;SDS011;16382;59.942;30.472;2022-09-03T07:24:02;3.75;;;1.67;;
29402;SDS011;16382;59.942;30.472;2022-09-03T07:26:31;1.50;;;1.23;;
29402;SDS011;16382;59.942;30.472;2022-09-03T07:29:01;2.70;;;1.67;;
29402;SDS011;16382;59.942;30.472;2022-09-03T07:31:29;1.48;;;1.38;;
29402;SDS011;16382;59.942;30.472;2022-09-03T07:34:03;2.00;;;1.55;;
29402;SDS011;16382;59.942;30.472;2022-09-03T07:36:34;1.83;;;1.73;;
29402;SDS011;16382;59.942;30.472;2022-09-03T07:39:05;5.28;;;1.88;;
29402;SDS011;16382;59.942;30.472;2022-09-03T07:41:33;1.60;;;1.50;;
29402;SDS011;16382;59.942;30.472;2022-09-03T07:44:02;1.55;;;1.40;;
29402;SDS011;16382;59.942;30.472;2022-09-03T07:46:32;1.70;;;1.60;;
29402;SDS011;16382;59.942;30.472;2022-09-03T07:49:03;1.50;;;1.40;;
29402;SDS011;16382;59.942;30.472;2022-09-03T07:51:33;2.90;;;1.80;;
29402;SDS011;16382;59.942;30.472;2022-09-03T07:54:03;4.05;;;2.20;;
29402;SDS011;16382;59.942;30.472;2022-09-03T07:56:34;8.65;;;2.00;;
29402;SDS011;16382;59.942;30.472;2022-09-03T07:59:02;2.08;;;1.98;;
29402;SDS011;16382;59.942;30.472;2022-09-03T08:01:31;2.55;;;1.75;;
29402;SDS011;16382;59.942;30.472;2022-09-03T08:04:02;2.00;;;1.55;;
29402;SDS011;16382;59.942;30.472;2022-09-03T08:06:31;4.55;;;3.35;;
29402;SDS011;16382;59.942;30.472;2022-09-03T08:09:00;3.72;;;1.60;;
29402;SDS011;16382;59.942;30.472;2022-09-03T08:11:30;5.10;;;2.13;;
29402;SDS011;16382;59.942;30.472;2022-09-03T08:14:00;2.38;;;1.55;;
29402;SDS011;16382;59.942;30.472;2022-09-03T08:16:31;5.83;;;2.50;;
29402;SDS011;16382;59.942;30.472;2022-09-03T08:19:02;2.92;;;1.75;;
29402;SDS011;16382;59.942;30.472;2022-09-03T08:21:30;1.95;;;1.55;;
29402;SDS011;16382;59.942;30.472;2022-09-03T08:23:58;2.10;;;1.90;;
29402;SDS011;16382;59.942;30.472;2022-09-03T08:26:27;3.97;;;2.00;;
29402;SDS011;16382;59.942;30.472;2022-09-03T08:28:56;1.60;;;1.50;;
29402;SDS011;16382;59.942;30.472;2022-09-03T08:31:24;3.80;;;1.65;;
29402;SDS011;16382;59.942;30.472;2022-09-03T08:33:53;3.85;;;1.60;;
29402;SDS011;16382;59.942;30.472;2022-09-03T08:36:25;3.20;;;1.90;;
29402;SDS011;16382;59.942;30.472;2022-09-03T08:38:54;3.15;;;2.72;;
29402;SDS011;16382;59.942;30.472;2022-09-03T08:41:27;2.45;;;1.92;;
29402;SDS011;16382;59.942;30.472;2022-09-03T08:44:05;1.55;;;1.35;;
29402;SDS011;16382;59.942;30.472;2022-09-03T08:46:47;1.83;;;1.73;;
29402;SDS011;16382;59.942;30.472;2022-09-03T08:49:21;1.23;;;1.13;;
29402;SDS011;16382;59.942;30.472;2022-09-03T08:51:54;2.42;;;1.80;;
29402;SDS011;16382;59.942;30.472;2022-09-03T08:54:28;1.88;;;1.77;;
29402;SDS011;16382;59.942;30.472;2022-09-03T08:56:59;2.70;;;2.47;;
29402;SDS011;16382;59.942;30.472;2022-09-03T08:59:28;2.10;;;1.48;;
29402;SDS011;16382;59.942;30.472;2022-09-03T09:01:58;1.75;;;1.60;;
29402;SDS011;16382;59.942;30.472;2022-09-03T09:04:38;5.43;;;4.97;;
29402;SDS011;16382;59.942;30.472;2022-09-03T09:07:22;1.80;;;1.60;;
29402;SDS011;16382;59.942;30.472;2022-09-03T09:09:56;2.08;;;1.48;;
29402;SDS011;16382;59.942;30.472;2022-09-03T09:12:32;1.50;;;1.40;;
29402;SDS011;16382;59.942;30.472;2022-09-03T09:15:09;3.42;;;1.73;;
29402;SDS011;16382;59.942;30.472;2022-09-03T09:17:50;2.22;;;1.90;;
29402;SDS011;16382;59.942;30.472;2022-09-03T09:20:34;7.47;;;2.13;;
29402;SDS011;16382;59.942;30.472;2022-09-03T09:23:09;2.67;;;2.17;;
29402;SDS011;16382;59.942;30.472;2022-09-03T09:25:43;1.92;;;1.80;;
29402;SDS011;16382;59.942;30.472;2022-09-03T09:28:16;6.00;;;2.20;;
29402;SDS011;16382;59.942;30.472;2022-09-03T09:33:16;2.30;;;2.10;;
29402;SDS011;16382;59.942;30.472;2022-09-03T09:35:45;2.35;;;2.15;;
29402;SDS011;16382;59.942;30.472;2022-09-03T09:38:25;2.85;;;1.92;;
29402;SDS011;16382;59.942;30.472;2022-09-03T09:40:54;2.45;;;1.67;;
29402;SDS011;16382;59.942;30.472;2022-09-03T09:43:22;1.92;;;1.70;;
29402;SDS011;16382;59.942;30.472;2022-09-03T09:45:50;1.60;;;1.50;;
29402;SDS011;16382;59.942;30.472;2022-09-03T09:48:21;4.97;;;2.38;;
29402;SDS011;16382;59.942;30.472;2022-09-03T09:51:02;2.15;;;1.70;;
29402;SDS011;16382;59.942;30.472;2022-09-03T09:53:32;1.55;;;1.45;;
29402;SDS011;16382;59.942;30.472;2022-09-03T09:56:00;2.15;;;1.77;;
29402;SDS011;16382;59.942;30.472;2022-09-03T09:58:29;3.35;;;1.80;;
29402;SDS011;16382;59.942;30.472;2022-09-03T10:01:02;5.22;;;1.67;;
29402;SDS011;16382;59.942;30.472;2022-09-03T10:03:39;1.80;;;1.70;;
29402;SDS011;16382;59.942;30.472;2022-09-03T10:06:15;2.03;;;1.55;;
29402;SDS011;16382;59.942;30.472;2022-09-03T10:09:06;1.67;;;1.58;;
29402;SDS011;16382;59.942;30.472;2022-09-03T10:14:17;2.70;;;2.40;;
29402;SDS011;16382;59.942;30.472;2022-09-03T10:16:49;2.00;;;1.90;;
29402;SDS011;16382;59.942;30.472;2022-09-03T10:19:27;1.60;;;1.50;;
29402;SDS011;16382;59.942;30.472;2022-09-03T10:22:05;3.85;;;1.80;;
29402;SDS011;16382;59.942;30.472;2022-09-03T10:24:48;2.45;;;1.63;;
29402;SDS011;16382;59.942;30.472;2022-09-03T10:27:25;2.33;;;1.83;;
29402;SDS011;16382;59.942;30.472;2022-09-03T10:29:53;2.72;;;1.83;;
29402;SDS011;16382;59.942;30.472;2022-09-03T10:32:24;2.90;;;1.90;;
29402;SDS011;16382;59.942;30.472;2022-09-03T10:35:02;4.47;;;2.03;;
29402;SDS011;16382;59.942;30.472;2022-09-03T10:37:37;3.13;;;1.50;;
29402;SDS011;16382;59.942;30.472;2022-09-03T10:40:14;1.80;;;1.70;;
29402;SDS011;16382;59.942;30.472;2022-09-03T10:43:08;1.27;;;1.27;;
29402;SDS011;16382;59.942;30.472;2022-09-03T10:45:55;2.95;;;1.70;;
29402;SDS011;16382;59.942;30.472;2022-09-03T10:51:42;1.90;;;1.80;;
29402;SDS011;16382;59.942;30.472;2022-09-03T10:54:22;1.95;;;1.63;;
29402;SDS011;16382;59.942;30.472;2022-09-03T10:57:11;1.58;;;1.30;;
29402;SDS011;16382;59.942;30.472;2022-09-03T10:59:59;3.50;;;1.10;;
29402;SDS011;16382;59.942;30.472;2022-09-03T11:02:42;2.33;;;1.13;;
29402;SDS011;16382;59.942;30.472;2022-09-03T11:05:30;1.40;;;1.30;;
29402;SDS011;16382;59.942;30.472;2022-09-03T11:08:04;4.22;;;1.20;;
29402;SDS011;16382;59.942;30.472;2022-09-03T11:10:43;1.38;;;1.27;;
29402;SDS011;16382;59.942;30.472;2022-09-03T11:13:19;1.63;;;1.52;;
29402;SDS011;16382;59.942;30.472;2022-09-03T11:15:52;1.80;;;1.70;;
29402;SDS011;16382;59.942;30.472;2022-09-03T11:18:26;1.85;;;1.70;;
29402;SDS011;16382;59.942;30.472;2022-09-03T11:21:01;1.63;;;1.52;;
29402;SDS011;16382;59.942;30.472;2022-09-03T11:23:36;2.35;;;2.03;;
29402;SDS011;16382;59.942;30.472;2022-09-03T11:26:09;1.67;;;1.58;;
29402;SDS011;16382;59.942;30.472;2022-09-03T11:28:42;2.22;;;1.40;;
29402;SDS011;16382;59.942;30.472;2022-09-03T11:31:22;1.80;;;1.70;;
29402;SDS011;16382;59.942;30.472;2022-09-03T11:34:00;1.90;;;1.80;;
29402;SDS011;16382;59.942;30.472;2022-09-03T11:36:34;1.60;;;1.50;;
29402;SDS011;16382;59.942;30.472;2022-09-03T11:39:15;3.17;;;1.40;;
29402;SDS011;16382;59.942;30.472;2022-09-03T11:41:57;1.77;;;1.67;;
29402;SDS011;16382;59.942;30.472;2022-09-03T11:44:35;2.50;;;1.55;;
29402;SDS011;16382;59.942;30.472;2022-09-03T11:47:12;6.75;;;2.00;;
29402;SDS011;16382;59.942;30.472;2022-09-03T11:49:46;2.70;;;1.75;;
29402;SDS011;16382;59.942;30.472;2022-09-03T11:52:25;2.53;;;1.48;;
29402;SDS011;16382;59.942;30.472;2022-09-03T11:54:55;1.33;;;1.33;;
29402;SDS011;16382;59.942;30.472;2022-09-03T11:57:25;2.35;;;1.80;;
29402;SDS011;16382;59.942;30.472;2022-09-03T12:00:07;2.92;;;1.60;;
29402;SDS011;16382;59.942;30.472;2022-09-03T12:02:41;1.40;;;1.30;;
29402;SDS011;16382;59.942;30.472;2022-09-03T12:05:20;2.58;;;1.40;;
29402;SDS011;16382;59.942;30.472;2022-09-03T12:08:08;2.05;;;1.50;;
29402;SDS011;16382;59.942;30.472;2022-09-03T12:11:19;5.25;;;2.90;;
29402;SDS011;16382;59.942;30.472;2022-09-03T12:14:04;2.55;;;1.00;;
29402;SDS011;16382;59.942;30.472;2022-09-03T12:16:49;3.83;;;1.30;;
29402;SDS011;16382;59.942;30.472;2022-09-03T12:19:39;2.08;;;1.27;;
29402;SDS011;16382;59.942;30.472;2022-09-03T12:22:18;1.30;;;1.20;;
29402;SDS011;16382;59.942;30.472;2022-09-03T12:24:50;1.42;;;1.20;;
29402;SDS011;16382;59.942;30.472;2022-09-03T12:27:25;1.20;;;1.10;;
29402;SDS011;16382;59.942;30.472;2022-09-03T12:29:54;1.30;;;1.00;;
29402;SDS011;16382;59.942;30.472;2022-09-03T12:32:27;4.10;;;1.20;;
29402;SDS011;16382;59.942;30.472;2022-09-03T12:35:11;1.02;;;1.02;;
29402;SDS011;16382;59.942;30.472;2022-09-03T12:37:43;1.60;;;1.50;;
29402;SDS011;16382;59.942;30.472;2022-09-03T12:40:18;1.15;;;0.90;;
29402;SDS011;16382;59.942;30.472;2022-09-03T12:42:47;1.98;;;0.95;;
29402;SDS011;16382;59.942;30.472;2022-09-03T12:45:18;2.88;;;1.50;;
29402;SDS011;16382;59.942;30.472;2022-09-03T12:47:51;2.15;;;1.40;;
29402;SDS011;16382;59.942;30.472;2022-09-03T12:50:20;2.95;;;1.40;;
29402;SDS011;16382;59.942;30.472;2022-09-03T12:52:51;1.73;;;1.50;;
29402;SDS011;16382;59.942;30.472;2022-09-03T12:55:25;1.70;;;1.60;;
29402;SDS011;16382;59.942;30.472;2022-09-03T12:58:01;1.58;;;1.48;;
29402;SDS011;16382;59.942;30.472;2022-09-03T13:00:38;2.30;;;2.10;;
29402;SDS011;16382;59.942;30.472;2022-09-03T13:03:14;3.42;;;1.70;;
29402;SDS011;16382;59.942;30.472;2022-09-03T13:05:49;2.35;;;1.55;;
29402;SDS011;16382;59.942;30.472;2022-09-03T13:08:23;1.40;;;1.30;;
29402;SDS011;16382;59.942;30.472;2022-09-03T13:10:55;2.00;;;1.27;;
29402;SDS011;16382;59.942;30.472;2022-09-03T13:13:26;1.40;;;1.30;;
29402;SDS011;16382;59.942;30.472;2022-09-03T13:16:04;1.50;;;1.40;;
29402;SDS011;16382;59.942;30.472;2022-09-03T13:18:55;1.70;;;1.00;;
29402;SDS011;16382;59.942;30.472;2022-09-03T13:21:34;2.33;;;1.20;;
29402;SDS011;16382;59.942;30.472;2022-09-03T13:24:20;1.63;;;1.33;;
29402;SDS011;16382;59.942;30.472;2022-09-03T13:27:17;1.52;;;1.00;;
29402;SDS011;16382;59.942;30.472;2022-09-03T13:29:56;2.38;;;1.00;;
29402;SDS011;16382;59.942;30.472;2022-09-03T13:32:41;0.98;;;0.98;;
29402;SDS011;16382;59.942;30.472;2022-09-03T13:35:28;4.57;;;0.90;;
29402;SDS011;16382;59.942;30.472;2022-09-03T13:38:05;2.10;;;1.00;;
29402;SDS011;16382;59.942;30.472;2022-09-03T13:40:48;2.63;;;1.05;;
29402;SDS011;16382;59.942;30.472;2022-09-03T13:43:26;1.00;;;0.95;;
29402;SDS011;16382;59.942;30.472;2022-09-03T13:46:01;4.50;;;1.00;;
29402;SDS011;16382;59.942;30.472;2022-09-03T13:48:35;1.95;;;0.77;;
29402;SDS011;16382;59.942;30.472;2022-09-03T13:51:27;1.95;;;0.90;;
29402;SDS011;16382;59.942;30.472;2022-09-03T13:54:02;3.03;;;1.05;;
29402;SDS011;16382;59.942;30.472;2022-09-03T13:59:22;1.98;;;0.88;;
29402;SDS011;16382;59.942;30.472;2022-09-03T14:02:06;2.00;;;1.15;;
29402;SDS011;16382;59.942;30.472;2022-09-03T14:05:02;1.20;;;1.10;;
29402;SDS011;16382;59.942;30.472;2022-09-03T14:07:43;1.15;;;1.15;;
29402;SDS011;16382;59.942;30.472;2022-09-03T14:10:22;0.73;;;0.73;;
29402;SDS011;16382;59.942;30.472;2022-09-03T14:13:04;1.75;;;0.80;;
29402;SDS011;16382;59.942;30.472;2022-09-03T14:15:42;1.23;;;0.88;;
29402;SDS011;16382;59.942;30.472;2022-09-03T14:18:21;2.30;;;1.00;;
29402;SDS011;16382;59.942;30.472;2022-09-03T14:21:02;1.08;;;1.08;;
29402;SDS011;16382;59.942;30.472;2022-09-03T14:23:41;0.95;;;0.80;;
29402;SDS011;16382;59.942;30.472;2022-09-03T14:26:16;2.67;;;0.95;;
29402;SDS011;16382;59.942;30.472;2022-09-03T14:28:48;1.80;;;0.90;;
29402;SDS011;16382;59.942;30.472;2022-09-03T14:31:28;2.05;;;1.00;;
29402;SDS011;16382;59.942;30.472;2022-09-03T14:34:18;1.85;;;0.80;;
29402;SDS011;16382;59.942;30.472;2022-09-03T14:37:04;0.95;;;0.95;;
29402;SDS011;16382;59.942;30.472;2022-09-03T14:39:47;1.40;;;1.30;;
29402;SDS011;16382;59.942;30.472;2022-09-03T14:42:30;1.45;;;0.93;;
29402;SDS011;16382;59.942;30.472;2022-09-03T14:45:19;1.08;;;0.98;;
29402;SDS011;16382;59.942;30.472;2022-09-03T14:48:08;1.27;;;1.08;;
29402;SDS011;16382;59.942;30.472;2022-09-03T14:51:12;1.77;;;1.25;;
29402;SDS011;16382;59.942;30.472;2022-09-03T14:54:19;0.95;;;0.95;;
29402;SDS011;16382;59.942;30.472;2022-09-03T14:57:21;2.28;;;1.38;;
29402;SDS011;16382;59.942;30.472;2022-09-03T15:00:24;2.13;;;1.20;;
29402;SDS011;16382;59.942;30.472;2022-09-03T15:06:27;3.70;;;0.90;;
29402;SDS011;16382;59.942;30.472;2022-09-03T15:09:14;1.55;;;1.17;;
29402;SDS011;16382;59.942;30.472;2022-09-03T15:11:53;0.88;;;0.85;;
29402;SDS011;16382;59.942;30.472;2022-09-03T15:14:28;0.77;;;0.73;;
29402;SDS011;16382;59.942;30.472;2022-09-03T15:17:04;2.13;;;1.20;;
29402;SDS011;16382;59.942;30.472;2022-09-03T15:19:50;2.38;;;1.30;;
29402;SDS011;16382;59.942;30.472;2022-09-03T15:22:40;1.65;;;1.13;;
29402;SDS011;16382;59.942;30.472;2022-09-03T15:25:33;3.97;;;1.00;;
29402;SDS011;16382;59.942;30.472;2022-09-03T15:28:16;0.93;;;0.93;;
29402;SDS011;16382;59.942;30.472;2022-09-03T15:30:55;3.08;;;1.05;;
29402;SDS011;16382;59.942;30.472;2022-09-03T15:33:29;1.65;;;1.27;;
29402;SDS011;16382;59.942;30.472;2022-09-03T15:36:10;1.55;;;0.98;;
29402;SDS011;16382;59.942;30.472;2022-09-03T15:38:46;0.90;;;0.90;;
29402;SDS011;16382;59.942;30.472;2022-09-03T15:41:24;1.20;;;1.10;;